Flight Track Log - Related Links

Times and Time Zones

All times are in EDT time to prevent confusion due to time zone crossing. See the VRD413 flight status page for this flight to view local times or setup timezone preferences in your user account.

Time Position Orientation Groundspeed Altitude Reporting Facility
EDT Latitude Longitude Course Direction KTS MPH feet Rate Location/Type
Thu 05:13:25 PM 40.6360 -73.7890 270° West 90 104  Level FlightAware ADS-B
Thu 05:14:00 PM 40.6480 -73.8160 300° West 166 191 600 1,435 Climbing FlightAware ADS-B
Thu 05:14:11 PM 40.6520 -73.8270 296° West 162 186 1,100 2,471 Climbing FlightAware ADS-B
Thu 05:14:17 PM 40.6530 -73.8330 282° West 165 190 1,300 1,500 Climbing FlightAware ADS-B
Thu 05:14:39 PM 40.6460 -73.8540 246° West 194 223 1,800 1,174 Climbing FlightAware ADS-B
Thu 05:15:03 PM 40.6300 -73.8790 230° Southwest 222 255 2,200 750 Climbing FlightAware ADS-B
Thu 05:15:19 PM 40.6170 -73.8940 221° Southwest 247 284 2,300 643 Climbing FlightAware ADS-B
Thu 05:15:31 PM 40.6050 -73.9040 212° Southwest 263 303 2,500 2,063 Climbing FlightAware ADS-B
Thu 05:15:51 PM 40.5830 -73.9200 209° Southwest 267 307 3,400 2,700 Climbing FlightAware ADS-B
Thu 05:16:11 PM 40.5620 -73.9360 210° Southwest 269 310 4,300 2,438 Climbing FlightAware ADS-B
Thu 05:16:23 PM 40.5490 -73.9470 213° Southwest 276 318 4,700 2,294 Climbing FlightAware ADS-B
Thu 05:16:45 PM 40.5240 -73.9670 211° Southwest 278 320 5,600 2,372 Climbing FlightAware ADS-B
Thu 05:17:06 PM 40.5020 -73.9850 212° Southwest 285 328 6,400 2,182 Climbing FlightAware ADS-B
Thu 05:17:29 PM 40.4760 -74.0070 213° Southwest 290 334 7,200 2,229 Climbing FlightAware ADS-B
Thu 05:17:41 PM 40.4620 -74.0190 213° Southwest 291 335 7,700 2,471 Climbing FlightAware ADS-B
Thu 05:18:03 PM 40.4370 -74.0400 213° Southwest 294 338 8,600 2,233 Climbing FlightAware ADS-B
Thu 05:18:24 PM 40.4130 -74.0590 211° Southwest 298 343 9,300 1,833 Climbing FlightAware ADS-B
Thu 05:18:39 PM 40.3950 -74.0730 211° Southwest 305 351 9,700 1,674 Climbing FlightAware ADS-B
Thu 05:19:07 PM 40.3620 -74.1060 217° Southwest 319 367 10,500 1,347 Climbing FlightAware ADS-B
Thu 05:19:28 PM 40.3460 -74.1390 238° Southwest 336 387 10,800 1,034 Climbing FlightAware ADS-B
Thu 05:20:05 PM 40.3210 -74.2120 246° West 363 418 11,500 1,629 Climbing FlightAware ADS-B
Thu 05:20:38 PM 40.2970 -74.2770 244° Southwest 365 420 12,700 2,066 Climbing FlightAware ADS-B
Thu 05:21:06 PM 40.2810 -74.3370 251° West 369 425 13,600 1,938 Climbing FlightAware ADS-B
Thu 05:21:43 PM 40.2760 -74.4180 265° West 373 429 14,800 1,765 Climbing FlightAware ADS-B
Thu 05:22:14 PM 40.2720 -74.4900 266° West 380 437 15,600 1,765 Climbing FlightAware ADS-B
Thu 05:22:51 PM 40.2640 -74.5750 263° West 382 440 16,800 1,644 Climbing FlightAware ADS-B
Thu 05:23:27 PM 40.2550 -74.6560 262° West 392 451 17,600 1,119 Climbing FlightAware ADS-B
Thu 05:23:50 PM 40.2500 -74.7110 263° West 404 465 17,900 1,241 Climbing FlightAware ADS-B
Thu 05:24:25 PM 40.2400 -74.8000 262° West 411 473 18,800 1,541 Climbing FlightAware ADS-B
Thu 05:25:04 PM 40.2300 -74.8950 262° West 413 475 19,800 1,600 Climbing FlightAware ADS-B
Thu 05:25:40 PM 40.2210 -74.9840 262° West 411 473 20,800 1,826 Climbing FlightAware ADS-B
Thu 05:26:13 PM 40.2120 -75.0650 262° West 407 468 21,900 1,971 Climbing FlightAware ADS-B
Thu 05:26:50 PM 40.2020 -75.1540 262° West 398 458 23,100 1,971 Climbing FlightAware ADS-B
Thu 05:27:23 PM 40.1940 -75.2330 262° West 391 450 24,200 1,970 Climbing FlightAware ADS-B
Thu 05:27:57 PM 40.1850 -75.3100 261° West 381 438 25,300 1,690 Climbing FlightAware ADS-B
Thu 05:28:34 PM 40.1760 -75.3930 262° West 377 434 26,200 1,217 Climbing FlightAware ADS-B
Thu 05:29:06 PM 40.1680 -75.4670 262° West 381 438 26,700 909 Climbing FlightAware ADS-B
Thu 05:29:40 PM 40.1600 -75.5410 262° West 388 447 27,200 667 Climbing FlightAware ADS-B
Thu 05:30:18 PM 40.1500 -75.6280 261° West 400 460 27,500 338 Climbing FlightAware ADS-B
Thu 05:30:51 PM 40.1410 -75.7130 262° West 413 475 27,600 231 Climbing FlightAware ADS-B
Thu 05:31:36 PM 40.1390 -75.8240 269° West 425 489 27,800 450 Climbing FlightAware ADS-B
Thu 05:32:11 PM 40.1480 -75.9190 277° West 434 499 28,200 514 Climbing FlightAware ADS-B
Thu 05:32:46 PM 40.1560 -76.0080 277° West 442 509 28,400 448 Climbing FlightAware ADS-B
Thu 05:33:18 PM 40.1640 -76.0970 277° West 449 517 28,700 522 Climbing FlightAware ADS-B
Thu 05:33:55 PM 40.1710 -76.1960 275° West 458 527 29,000 536 Climbing FlightAware ADS-B
Thu 05:34:14 PM 40.1712 -76.2181 271° West 462 532 29,200 676 Climbing FlightAware ADS-B (KSYR)
Thu 05:35:06 PM 40.1680 -76.3970 269° West 465 535 29,800 828 Climbing FlightAware ADS-B
Thu 05:35:41 PM 40.1670 -76.4940 269° West 463 533 30,400 1,021 Climbing FlightAware ADS-B
Thu 05:35:53 PM 40.1667 -76.5130 269° West 462 532 30,600 943 Climbing FlightAware ADS-B (KSYR)
Thu 05:36:51 PM 40.1640 -76.6870 269° West 456 525 31,500 1,000 Climbing FlightAware ADS-B
Thu 05:36:59 PM 40.1633 -76.7090 268° West 456 525 31,700 896 Climbing FlightAware ADS-B (KSYR)
Thu 05:37:58 PM 40.1600 -76.8680 269° West 452 520 32,500 808 Climbing FlightAware ADS-B
Thu 05:38:43 PM 40.1580 -76.9930 269° West 448 516 33,100 846 Climbing FlightAware ADS-B
Thu 05:39:16 PM 40.1560 -77.0810 268° West 443 510 33,600 656 Climbing FlightAware ADS-B
Thu 05:39:47 PM 40.1540 -77.1620 268° West 446 513 33,800 358 Climbing FlightAware ADS-B
Thu 05:40:23 PM 40.1520 -77.2620 269° West 446 513 34,000 162 Climbing FlightAware ADS-B
Thu 05:41:01 PM 40.1500 -77.3610 269° West 443 510 34,000  Level FlightAware ADS-B
Thu 05:41:38 PM 40.1480 -77.4470 268° West 442 509 34,000  Level FlightAware ADS-B
Thu 05:42:13 PM 40.1460 -77.5410 268° West 443 510 34,000  Level FlightAware ADS-B
Thu 05:42:53 PM 40.1430 -77.6530 268° West 444 511 34,000  Level FlightAware ADS-B
Thu 05:43:18 PM 40.1410 -77.7160 268° West 444 511 34,000  Level FlightAware ADS-B
Thu 05:44:03 PM 40.1380 -77.8450 268° West 446 513 34,000  Level FlightAware ADS-B
Thu 05:44:34 PM 40.1350 -77.9330 267° West 448 516 34,000  Level FlightAware ADS-B
Thu 05:45:11 PM 40.1320 -78.0340 268° West 449 517 34,000  Level FlightAware ADS-B
Thu 05:45:46 PM 40.1290 -78.1290 268° West 450 518 34,000  Level FlightAware ADS-B
Thu 05:46:16 PM 40.1270 -78.2030 268° West 450 518 34,000  Level FlightAware ADS-B
Thu 05:46:55 PM 40.1240 -78.3110 268° West 450 518 34,000  Level FlightAware ADS-B
Thu 05:47:30 PM 40.1210 -78.4080 268° West 450 518 34,000  Level FlightAware ADS-B
Thu 05:48:07 PM 40.1170 -78.5040 267° West 450 518 34,000  Level FlightAware ADS-B
Thu 05:48:42 PM 40.1140 -78.6040 268° West 450 518 34,000  Level FlightAware ADS-B
Thu 05:49:14 PM 40.1110 -78.6920 267° West 450 518 34,000  Level FlightAware ADS-B
Thu 05:49:52 PM 40.1070 -78.7940 267° West 450 518 34,000  Level FlightAware ADS-B
Thu 05:50:24 PM 40.1040 -78.8790 267° West 451 519 34,000  Level FlightAware ADS-B
Thu 05:51:00 PM 40.1010 -78.9810 268° West 450 518 34,000  Level FlightAware ADS-B
Thu 05:51:34 PM 40.0970 -79.0710 267° West 449 517 34,000  Level FlightAware ADS-B
Thu 05:52:10 PM 40.0930 -79.1710 267° West 449 517 34,000  Level FlightAware ADS-B
Thu 05:52:46 PM 40.0890 -79.2660 267° West 449 517 34,000  Level FlightAware ADS-B
Thu 05:53:22 PM 40.0860 -79.3640 268° West 449 517 34,000  Level FlightAware ADS-B
Thu 05:53:56 PM 40.0820 -79.4550 267° West 449 517 34,000  Level FlightAware ADS-B
Thu 05:54:32 PM 40.0780 -79.5530 267° West 449 517 34,000  Level FlightAware ADS-B
Thu 05:55:05 PM 40.0740 -79.6410 267° West 449 517 34,000  Level FlightAware ADS-B
Thu 05:55:39 PM 40.0700 -79.7330 267° West 449 517 34,000  Level FlightAware ADS-B
Thu 05:56:15 PM 40.0660 -79.8270 267° West 449 517 34,000  Level FlightAware ADS-B
Thu 05:56:50 PM 40.0610 -79.9250 266° West 448 516 34,000  Level FlightAware ADS-B
Thu 05:57:24 PM 40.0570 -80.0160 267° West 447 514 34,000  Level FlightAware ADS-B
Thu 05:58:08 PM 40.0520 -80.1310 267° West 446 513 34,000  Level FlightAware ADS-B
Thu 05:58:44 PM 40.0480 -80.2090 266° West 380 437 34,000  Level FlightAware ADS-B
Thu 05:59:15 PM 40.0440 -80.2960 267° West 448 516 34,000  Level FlightAware ADS-B
Thu 05:59:57 PM 40.0380 -80.4050 266° West 447 514 34,000  Level FlightAware ADS-B
Thu 06:00:32 PM 40.0340 -80.4930 267° West 447 514 34,000  Level FlightAware ADS-B
Thu 06:01:06 PM 40.0290 -80.5860 266° West 449 517 34,000  Level FlightAware ADS-B
Thu 06:01:45 PM 40.0230 -80.6960 266° West 447 514 34,000  Level FlightAware ADS-B
Thu 06:02:31 PM 40.0160 -80.8320 266° West 446 513 34,000  Level FlightAware ADS-B
Thu 06:03:01 PM 40.0160 -80.8860 270° West 442 509 34,000  Level FlightAware ADS-B
Thu 06:03:41 PM 40.0140 -81.0250 269° West 442 509 34,000  Level FlightAware ADS-B
Thu 06:04:07 PM 40.0130 -81.0950 269° West 442 509 34,000  Level FlightAware ADS-B
Thu 06:04:52 PM 40.0120 -81.1840 269° West 442 509 34,000  Level FlightAware ADS-B
Thu 06:05:30 PM 40.0100 -81.3190 269° West 442 509 34,000  Level FlightAware ADS-B
Thu 06:06:02 PM 40.0080 -81.4040 268° West 442 509 34,000  Level FlightAware ADS-B
Thu 06:06:38 PM 40.0060 -81.4990 268° West 442 509 34,000  Level FlightAware ADS-B
Thu 06:07:18 PM 40.0040 -81.6040 269° West 442 509 34,000  Level FlightAware ADS-B
Thu 06:07:52 PM 40.0020 -81.6940 268° West 443 510 34,000  Level FlightAware ADS-B
Thu 06:08:26 PM 40.0000 -81.7820 268° West 444 511 34,000  Level FlightAware ADS-B
Thu 06:09:00 PM 39.9980 -81.8720 268° West 445 512 34,000  Level FlightAware ADS-B
Thu 06:09:36 PM 39.9960 -81.9750 269° West 447 514 34,000  Level FlightAware ADS-B
Thu 06:10:11 PM 39.9940 -82.0640 268° West 448 516 34,000  Level FlightAware ADS-B
Thu 06:10:48 PM 39.9910 -82.1690 268° West 448 516 34,000  Level FlightAware ADS-B
Thu 06:11:23 PM 39.9900 -82.2090 268° West 449 517 34,000  Level FlightAware ADS-B
Thu 06:11:53 PM 39.9880 -82.3030 268° West 449 517 34,000  Level FlightAware ADS-B
Thu 06:12:28 PM 39.9850 -82.3940 268° West 449 517 34,000  Level FlightAware ADS-B
Thu 06:13:06 PM 39.9810 -82.5400 268° West 448 516 34,000  Level FlightAware ADS-B
Thu 06:13:40 PM 39.9790 -82.6320 268° West 447 514 34,000  Level FlightAware ADS-B
Thu 06:14:16 PM 39.9760 -82.7290 268° West 446 513 34,000  Level FlightAware ADS-B
Thu 06:14:52 PM 39.9730 -82.8250 268° West 445 512 34,000  Level FlightAware ADS-B
Thu 06:15:24 PM 39.9700 -82.9090 267° West 446 513 34,000  Level FlightAware ADS-B
Thu 06:16:02 PM 39.9670 -83.0120 268° West 447 514 34,000  Level FlightAware ADS-B
Thu 06:16:34 PM 39.9650 -83.0990 268° West 446 513 34,000  Level FlightAware ADS-B
Thu 06:17:06 PM 39.9630 -83.1830 268° West 445 512 34,000  Level FlightAware ADS-B
Thu 06:17:48 PM 39.9600 -83.2970 268° West 448 516 34,000  Level FlightAware ADS-B
Thu 06:18:22 PM 39.9570 -83.3880 268° West 449 517 34,000  Level FlightAware ADS-B
Thu 06:18:54 PM 39.9540 -83.4740 267° West 449 517 34,000  Level FlightAware ADS-B
Thu 06:19:30 PM 39.9500 -83.5720 267° West 448 516 34,000 83 Level FlightAware ADS-B
Thu 06:20:06 PM 39.9460 -83.6690 267° West 446 513 34,100  Climbing FlightAware ADS-B
Thu 06:20:41 PM 39.9430 -83.7550 267° West 443 510 34,000 -92 Descending FlightAware ADS-B
Thu 06:21:11 PM 39.9400 -83.8390 267° West 440 506 34,000  Level FlightAware ADS-B
Thu 06:21:51 PM 39.9360 -83.9460 267° West 439 505 34,000  Level FlightAware ADS-B
Thu 06:22:27 PM 39.9320 -84.0380 267° West 438 504 34,000  Level FlightAware ADS-B
Thu 06:22:57 PM 39.9290 -84.1230 267° West 438 504 34,000  Level FlightAware ADS-B
Thu 06:23:33 PM 39.9250 -84.2150 267° West 437 503 34,000  Level FlightAware ADS-B
Thu 06:24:11 PM 39.9210 -84.3150 267° West 436 502 34,000  Level FlightAware ADS-B
Thu 06:24:47 PM 39.9170 -84.4100 267° West 436 502 34,000  Level FlightAware ADS-B
Thu 06:25:19 PM 39.9130 -84.4940 266° West 437 503 34,000  Level FlightAware ADS-B
Thu 06:25:57 PM 39.9090 -84.5930 267° West 437 503 34,000  Level FlightAware ADS-B
Thu 06:26:29 PM 39.9050 -84.6770 266° West 436 502 34,000  Level FlightAware ADS-B
Thu 06:27:05 PM 39.9000 -84.7720 266° West 436 502 34,000  Level FlightAware ADS-B
Thu 06:27:41 PM 39.8960 -84.8650 267° West 436 502 34,000  Level FlightAware ADS-B
Thu 06:28:17 PM 39.8910 -84.9590 266° West 436 502 34,000  Level FlightAware ADS-B
Thu 06:28:46 PM 39.8880 -85.0340 267° West 436 502 34,000  Level FlightAware ADS-B
Thu 06:29:26 PM 39.8830 -85.1410 267° West 435 501 34,000  Level FlightAware ADS-B
Thu 06:30:02 PM 39.8780 -85.2330 266° West 434 499 34,000  Level FlightAware ADS-B
Thu 06:30:38 PM 39.8730 -85.3240 266° West 435 501 34,000  Level FlightAware ADS-B
Thu 06:31:10 PM 39.8690 -85.4100 267° West 435 501 34,000  Level FlightAware ADS-B
Thu 06:31:42 PM 39.8640 -85.4920 265° West 434 499 34,000  Level FlightAware ADS-B
Thu 06:32:20 PM 39.8590 -85.5930 266° West 435 501 34,000  Level FlightAware ADS-B
Thu 06:32:54 PM 39.8540 -85.6820 266° West 435 501 34,000  Level FlightAware ADS-B
Thu 06:33:33 PM 39.8490 -85.7850 266° West 435 501 34,000  Level FlightAware ADS-B
Thu 06:34:04 PM 39.8440 -85.8650 265° West 435 501 34,000  Level FlightAware ADS-B
Thu 06:34:39 PM 39.8390 -85.9550 266° West 436 502 34,000  Level FlightAware ADS-B
Thu 06:35:14 PM 39.8340 -86.0460 266° West 436 502 34,000  Level FlightAware ADS-B
Thu 06:35:48 PM 39.8290 -86.1360 266° West 436 502 34,000  Level FlightAware ADS-B
Thu 06:36:25 PM 39.8230 -86.2320 265° West 436 502 34,000  Level FlightAware ADS-B
Thu 06:37:02 PM 39.8170 -86.3270 265° West 434 499 34,000  Level FlightAware ADS-B
Thu 06:37:48 PM 39.8160 -86.4450 269° West 428 493 34,000  Level FlightAware ADS-B
Thu 06:38:27 PM 39.8180 -86.5360 272° West 427 491 34,000  Level FlightAware ADS-B
Thu 06:38:56 PM 39.8200 -86.6180 272° West 427 491 34,000  Level FlightAware ADS-B
Thu 06:39:35 PM 39.8220 -86.7190 272° West 427 491 34,000  Level FlightAware ADS-B
Thu 06:40:11 PM 39.8240 -86.8140 272° West 428 493 34,000  Level FlightAware ADS-B
Thu 06:40:43 PM 39.8250 -86.8890 271° West 428 493 34,000  Level FlightAware ADS-B
Thu 06:41:19 PM 39.8270 -86.9860 272° West 429 494 34,000  Level FlightAware ADS-B
Thu 06:41:56 PM 39.8280 -87.0780 271° West 429 494 34,000  Level FlightAware ADS-B
Thu 06:42:28 PM 39.8290 -87.1640 271° West 428 493 34,000  Level FlightAware ADS-B
Thu 06:43:04 PM 39.8310 -87.2590 272° West 428 493 34,000  Level FlightAware ADS-B
Thu 06:43:41 PM 39.8320 -87.3510 271° West 427 491 34,000  Level FlightAware ADS-B
Thu 06:44:17 PM 39.8330 -87.4470 271° West 426 490 34,000  Level FlightAware ADS-B
Thu 06:44:52 PM 39.8340 -87.5340 271° West 425 489 34,000  Level FlightAware ADS-B
Thu 06:45:25 PM 39.8350 -87.6150 271° West 425 489 34,000  Level FlightAware ADS-B
Thu 06:46:01 PM 39.8360 -87.7110 271° West 426 490 34,000  Level FlightAware ADS-B
Thu 06:46:34 PM 39.8370 -87.7940 271° West 427 491 34,000  Level FlightAware ADS-B
Thu 06:47:09 PM 39.8380 -87.8860 271° West 428 493 34,000  Level FlightAware ADS-B
Thu 06:47:46 PM 39.8390 -87.9790 271° West 429 494 34,000  Level FlightAware ADS-B
Thu 06:48:22 PM 39.8390 -88.0740 270° West 430 495 34,000  Level FlightAware ADS-B
Thu 06:48:51 PM 39.8400 -88.1460 271° West 430 495 34,000  Level FlightAware ADS-B
Thu 06:49:29 PM 39.8400 -88.2390 270° West 430 495 34,000  Level FlightAware ADS-B
Thu 06:50:05 PM 39.8410 -88.3360 271° West 430 495 34,000  Level FlightAware ADS-B
Thu 06:50:40 PM 39.8410 -88.4260 270° West 430 495 34,000  Level FlightAware ADS-B
Thu 06:51:12 PM 39.8420 -88.5090 271° West 431 496 34,000  Level FlightAware ADS-B
Thu 06:51:49 PM 39.8420 -88.6030 270° West 431 496 34,000  Level FlightAware ADS-B
Thu 06:52:21 PM 39.8420 -88.6870 270° West 431 496 34,000  Level FlightAware ADS-B
Thu 06:53:00 PM 39.8420 -88.7900 270° West 431 496 34,000  Level FlightAware ADS-B
Thu 06:53:33 PM 39.8420 -88.8740 270° West 431 496 34,000  Level FlightAware ADS-B
Thu 06:54:09 PM 39.8420 -88.9660 270° West 430 495 34,000  Level FlightAware ADS-B
Thu 06:54:43 PM 39.8420 -89.0560 270° West 430 495 34,000  Level FlightAware ADS-B
Thu 06:55:17 PM 39.8420 -89.1440 270° West 429 494 34,000  Level FlightAware ADS-B
Thu 06:55:55 PM 39.8420 -89.2370 270° West 429 494 34,000  Level FlightAware ADS-B
Thu 06:56:29 PM 39.8420 -89.3210 270° West 429 494 34,000  Level FlightAware ADS-B
Thu 06:57:05 PM 39.8410 -89.4190 269° West 428 493 34,000  Level FlightAware ADS-B
Thu 06:57:41 PM 39.8410 -89.5090 270° West 429 494 34,000  Level FlightAware ADS-B
Thu 06:58:15 PM 39.8400 -89.6020 269° West 429 494 34,000  Level FlightAware ADS-B
Thu 06:58:53 PM 39.8380 -89.6940 268° West 430 495 34,000  Level FlightAware ADS-B
Thu 06:59:22 PM 39.8310 -89.7730 263° West 429 494 34,000  Level FlightAware ADS-B
Thu 07:00:00 PM 39.8230 -89.8630 263° West 428 493 34,000  Level FlightAware ADS-B
Thu 07:00:37 PM 39.8140 -89.9660 264° West 425 489 34,000  Level FlightAware ADS-B
Thu 07:01:10 PM 39.8070 -90.0480 264° West 424 488 34,000  Level FlightAware ADS-B
Thu 07:01:45 PM 39.7990 -90.1380 263° West 423 487 34,000  Level FlightAware ADS-B
Thu 07:02:22 PM 39.7900 -90.2280 263° West 423 487 34,000  Level FlightAware ADS-B
Thu 07:02:54 PM 39.7830 -90.3090 264° West 424 488 34,000  Level FlightAware ADS-B
Thu 07:03:43 PM 39.7770 -90.3670 262° West 425 489 34,000  Level FlightAware ADS-B
Thu 07:04:22 PM 39.7620 -90.5300 263° West 423 487 34,000  Level FlightAware ADS-B
Thu 07:04:53 PM 39.7540 -90.6130 263° West 423 487 34,000  Level FlightAware ADS-B
Thu 07:05:27 PM 39.7460 -90.6980 263° West 422 486 34,000  Level FlightAware ADS-B
Thu 07:06:05 PM 39.7370 -90.7890 263° West 422 486 34,000  Level FlightAware ADS-B
Thu 07:06:39 PM 39.7290 -90.8730 263° West 422 486 34,000  Level FlightAware ADS-B
Thu 07:07:16 PM 39.7200 -90.9700 263° West 422 486 34,000  Level FlightAware ADS-B
Thu 07:07:52 PM 39.7110 -91.0620 263° West 422 486 34,000  Level FlightAware ADS-B
Thu 07:08:25 PM 39.7030 -91.1430 263° West 422 486 34,000  Level FlightAware ADS-B
Thu 07:09:04 PM 39.6930 -91.2400 262° West 421 484 34,000  Level FlightAware ADS-B
Thu 07:09:38 PM 39.6840 -91.3260 262° West 419 482 34,000  Level FlightAware ADS-B
Thu 07:10:13 PM 39.6750 -91.4140 262° West 417 480 34,000  Level FlightAware ADS-B
Thu 07:10:50 PM 39.6660 -91.5070 263° West 415 478 34,000  Level FlightAware ADS-B
Thu 07:11:27 PM 39.6560 -91.5960 262° West 413 475 34,000  Level FlightAware ADS-B
Thu 07:12:03 PM 39.6470 -91.6830 262° West 412 474 34,000  Level FlightAware ADS-B
Thu 07:12:38 PM 39.6380 -91.7680 262° West 411 473 34,000  Level FlightAware ADS-B
Thu 07:13:11 PM 39.6300 -91.8460 262° West 410 472 34,000  Level FlightAware ADS-B
Thu 07:13:48 PM 39.6200 -91.9410 262° West 409 471 34,000  Level FlightAware ADS-B
Thu 07:14:23 PM 39.6110 -92.0230 262° West 409 471 34,000  Level FlightAware ADS-B
Thu 07:14:57 PM 39.6020 -92.1070 262° West 409 471 34,000  Level FlightAware ADS-B
Thu 07:15:32 PM 39.5930 -92.1940 262° West 411 473 34,000  Level FlightAware ADS-B
Thu 07:16:09 PM 39.5830 -92.2810 262° West 412 474 34,000  Level FlightAware ADS-B
Thu 07:16:45 PM 39.5730 -92.3710 262° West 412 474 34,000  Level FlightAware ADS-B
Thu 07:17:16 PM 39.5650 -92.4460 262° West 412 474 34,000  Level FlightAware ADS-B
Thu 07:17:53 PM 39.5550 -92.5350 262° West 411 473 34,000  Level FlightAware ADS-B
Thu 07:18:27 PM 39.5450 -92.6200 261° West 410 472 34,000  Level FlightAware ADS-B
Thu 07:19:04 PM 39.5350 -92.7070 262° West 409 471 34,000  Level FlightAware ADS-B
Thu 07:19:35 PM 39.5270 -92.7820 262° West 408 470 34,000  Level FlightAware ADS-B
Thu 07:20:13 PM 39.5170 -92.8600 261° West 408 470 34,000  Level FlightAware ADS-B
Thu 07:20:48 PM 39.5060 -92.9600 262° West 409 471 34,000  Level FlightAware ADS-B
Thu 07:21:28 PM 39.4950 -93.0560 262° West 409 471 34,000  Level FlightAware ADS-B
Thu 07:22:06 PM 39.4840 -93.1490 261° West 410 472 34,000  Level FlightAware ADS-B
Thu 07:22:39 PM 39.4760 -93.2220 262° West 410 472 34,000  Level FlightAware ADS-B
Thu 07:23:14 PM 39.4650 -93.3130 261° West 410 472 34,000  Level FlightAware ADS-B
Thu 07:23:49 PM 39.4550 -93.3980 261° West 409 471 34,000  Level FlightAware ADS-B
Thu 07:24:25 PM 39.4440 -93.4850 261° West 409 471 34,000  Level FlightAware ADS-B
Thu 07:25:00 PM 39.4340 -93.5690 261° West 407 468 34,000  Level FlightAware ADS-B
Thu 07:25:12 PM 39.4301 -93.5995 261° West 407 468 34,000  Level FlightAware ADS-B
Thu 07:26:08 PM 39.4140 -93.7320 261° West 406 467 34,000  Level FlightAware ADS-B
Thu 07:26:33 PM 39.4229 -93.6583 81° East 406 467 34,000  Level FlightAware ADS-B
Thu 07:27:20 PM 39.3920 -93.9040 261° West 406 467 34,000  Level FlightAware ADS-B
Thu 07:27:43 PM 39.3865 -93.9518 262° West 406 467 34,000  Level FlightAware ADS-B
Thu 07:28:29 PM 39.3720 -94.0680 261° West 406 467 34,000  Level FlightAware ADS-B
Thu 07:28:39 PM 39.3738 -94.0522 82° East 406 467 34,000  Level FlightAware ADS-B
Thu 07:29:40 PM 39.3500 -94.2390 261° West 405 466 34,000  Level FlightAware ADS-B
Thu 07:30:17 PM 39.3390 -94.3280 261° West 405 466 34,000  Level FlightAware ADS-B
Thu 07:30:50 PM 39.3290 -94.4050 260° West 404 465 34,000  Level FlightAware ADS-B
Thu 07:31:25 PM 39.3180 -94.4870 260° West 404 465 34,000  Level FlightAware ADS-B
Thu 07:31:57 PM 39.3080 -94.5650 261° West 403 464 34,000  Level FlightAware ADS-B
Thu 07:32:36 PM 39.2960 -94.6560 260° West 402 463 34,000  Level FlightAware ADS-B
Thu 07:33:10 PM 39.2850 -94.7370 260° West 402 463 34,000  Level FlightAware ADS-B
Thu 07:33:44 PM 39.2760 -94.8160 262° West 400 460 34,000  Level FlightAware ADS-B
Thu 07:34:20 PM 39.2660 -94.9030 262° West 400 460 34,000  Level FlightAware ADS-B
Thu 07:34:55 PM 39.2570 -94.9850 262° West 402 463 34,000  Level FlightAware ADS-B
Thu 07:35:27 PM 39.2490 -95.0610 262° West 403 464 34,000  Level FlightAware ADS-B
Thu 07:35:51 PM 39.2420 -95.1182 261° West 404 465 34,000  Level FlightAware ADS-B
Thu 07:36:37 PM 39.2290 -95.2280 261° West 404 465 34,000  Level FlightAware ADS-B
Thu 07:37:13 PM 39.2190 -95.3130 261° West 405 466 34,000  Level FlightAware ADS-B
Thu 07:37:50 PM 39.2090 -95.3990 261° West 404 465 34,000  Level FlightAware ADS-B
Thu 07:38:26 PM 39.1990 -95.4880 262° West 404 465 34,000  Level FlightAware ADS-B
Thu 07:38:59 PM 39.1900 -95.5640 261° West 403 464 34,000  Level FlightAware ADS-B
Thu 07:39:36 PM 39.1790 -95.6540 261° West 402 463 34,000  Level FlightAware ADS-B
Thu 07:39:49 PM 39.1752 -95.6845 261° West 403 464 34,000  Level FlightAware ADS-B
Thu 07:40:47 PM 39.1590 -95.8190 261° West 402 463 34,000  Level FlightAware ADS-B
Thu 07:41:22 PM 39.1490 -95.8990 261° West 402 463 34,000  Level FlightAware ADS-B
Thu 07:41:52 PM 39.1400 -95.9710 261° West 403 464 34,000  Level FlightAware ADS-B
Thu 07:42:30 PM 39.1290 -96.0630 261° West 402 463 34,000  Level FlightAware ADS-B
Thu 07:43:06 PM 39.1180 -96.1490 261° West 404 465 34,000  Level FlightAware ADS-B
Thu 07:43:46 PM 39.1070 -96.2310 260° West 404 465 34,000  Level FlightAware ADS-B
Thu 07:44:20 PM 39.0960 -96.3240 261° West 404 465 34,000  Level FlightAware ADS-B
Thu 07:44:56 PM 39.0860 -96.4100 262° West 404 465 34,000  Level FlightAware ADS-B
Thu 07:45:32 PM 39.0750 -96.4950 261° West 403 464 34,000  Level FlightAware ADS-B
Thu 07:45:49 PM 39.0712 -96.5232 260° West 403 464 34,000  Level FlightAware ADS-B
Thu 07:46:20 PM 39.0601 -96.6093 261° West 403 464 34,000  Level FlightAware ADS-B
Thu 07:47:08 PM 39.0450 -96.7220 260° West 404 465 34,000  Level FlightAware ADS-B
Thu 07:47:27 PM 39.0575 -96.6295 80° East 403 464 34,000  Level FlightAware ADS-B
Thu 07:48:18 PM 39.0240 -96.8880 261° West 401 461 34,000  Level FlightAware ADS-B
Thu 07:48:56 PM 39.0120 -96.9770 260° West 400 460 34,000  Level FlightAware ADS-B
Thu 07:49:33 PM 39.0010 -97.0620 261° West 399 459 34,000  Level FlightAware ADS-B
Thu 07:50:08 PM 38.9900 -97.1460 260° West 398 458 34,000  Level FlightAware ADS-B
Thu 07:50:41 PM 38.9800 -97.2210 260° West 398 458 34,000  Level FlightAware ADS-B
Thu 07:51:17 PM 38.9690 -97.2960 259° West 398 458 34,000  Level FlightAware ADS-B
Thu 07:51:53 PM 38.9570 -97.3880 261° West 399 459 34,000  Level FlightAware ADS-B
Thu 07:52:32 PM 38.9440 -97.4810 260° West 399 459 34,000  Level FlightAware ADS-B
Thu 07:53:09 PM 38.9330 -97.5660 261° West 401 461 34,000  Level FlightAware ADS-B
Thu 07:53:44 PM 38.9210 -97.6500 260° West 400 460 34,000  Level FlightAware ADS-B
Thu 07:54:21 PM 38.9111 -97.7333 261° West 401 461 34,000  Level FlightAware ADS-B
Thu 07:54:52 PM 38.9020 -97.8080 261° West 399 459 34,000  Level FlightAware ADS-B
Thu 07:55:28 PM 38.8920 -97.8920 261° West 399 459 34,000  Level FlightAware ADS-B
Thu 07:56:04 PM 38.8820 -97.9750 261° West 399 459 34,000  Level FlightAware ADS-B
Thu 07:56:38 PM 38.8720 -98.0560 261° West 397 457 34,000  Level FlightAware ADS-B
Thu 07:57:18 PM 38.8603 -98.1473 261° West 395 455 34,000  Level FlightAware ADS-B
Thu 07:57:48 PM 38.8520 -98.2160 261° West 395 455 34,000  Level FlightAware ADS-B
Thu 07:58:19 PM 38.8531 -98.2055 82° East 395 455 34,000  Level FlightAware ADS-B
Thu 07:58:58 PM 38.8310 -98.3790 261° West 398 458 34,000  Level FlightAware ADS-B
Thu 07:59:34 PM 38.8200 -98.4630 260° West 398 458 34,000  Level FlightAware ADS-B
Thu 08:00:06 PM 38.8110 -98.5360 261° West 398 458 34,000  Level FlightAware ADS-B
Thu 08:00:54 PM 38.7975 -98.6411 261° West 397 457 34,000  Level Denver Center
Thu 08:01:35 PM 38.7861 -98.7208 260° West 396 456 34,000  Level Kansas City Center
Thu 08:02:37 PM 38.7689 -98.8589 261° West 395 455 34,000  Level Kansas City Center
Thu 08:03:40 PM 38.7497 -98.9978 260° West 396 456 34,000  Level Kansas City Center
Thu 08:04:42 PM 38.7281 -99.1622 260° West 392 451 34,000  Level Kansas City Center
Thu 08:05:44 PM 38.7086 -99.3003 260° West 394 453 34,000  Level Kansas City Center
Thu 08:06:46 PM 38.6900 -99.4392 260° West 395 455 34,000  Level Kansas City Center
Thu 08:07:48 PM 38.6692 -99.5892 260° West 395 455 34,000  Level Kansas City Center
Thu 08:08:50 PM 38.6517 -99.7197 260° West 392 451 34,000  Level Kansas City Center
Thu 08:09:52 PM 38.6294 -99.8725 259° West 392 451 34,000  Level Kansas City Center
Thu 08:10:54 PM 38.6108 -100.0022 260° West 390 449 34,000  Level Kansas City Center
Thu 08:11:56 PM 38.5894 -100.1556 260° West 392 451 34,000 97 Level Kansas City Center
Thu 08:12:58 PM 38.5706 -100.2867 260° West 393 452 34,200 532 Climbing Kansas City Center
Thu 08:14:00 PM 38.5486 -100.4411 260° West 396 456 35,100 823 Climbing Kansas City Center
Thu 08:15:02 PM 38.5289 -100.5719 259° West 394 453 35,900 435 Climbing Kansas City Center
Thu 08:16:04 PM 38.5075 -100.7217 260° West 389 448 36,000 48 Climbing Kansas City Center
Thu 08:17:06 PM 38.4883 -100.8481 259° West 383 441 36,000  Level Kansas City Center
Thu 08:17:40 PM 38.4750 -100.9350 259° West 386 444 36,000  Level Denver Center
Thu 08:18:42 PM 38.4556 -101.0633 259° West 387 445 36,000  Level Denver Center
Thu 08:19:44 PM 38.4333 -101.2103 259° West 381 438 36,000  Level Denver Center
Thu 08:20:46 PM 38.4131 -101.3383 259° West 385 443 36,000  Level Denver Center
Thu 08:21:48 PM 38.3911 -101.4872 259° West 383 441 36,000  Level Denver Center
Thu 08:22:50 PM 38.3706 -101.6136 258° West 381 438 36,000  Level Denver Center
Thu 08:23:52 PM 38.3472 -101.7589 258° West 376 433 36,000  Level Denver Center
Thu 08:24:54 PM 38.3281 -101.8847 259° West 378 435 36,000  Level Denver Center
Thu 08:30:41 PM 38.2000 -102.6690 259° West 387 445 36,000  Level FlightAware ADS-B
Thu 08:31:23 PM 38.1800 -102.7560 254° West 387 445 36,000  Level FlightAware ADS-B
Thu 08:32:00 PM 38.1640 -102.8240 253° West 387 445 36,000  Level FlightAware ADS-B
Thu 08:32:36 PM 38.1480 -102.8910 253° West 387 445 36,000  Level FlightAware ADS-B
Thu 08:33:12 PM 38.1320 -102.9570 253° West 387 445 36,000  Level FlightAware ADS-B
Thu 08:33:50 PM 38.1150 -103.0280 253° West 387 445 36,000  Level FlightAware ADS-B
Thu 08:34:26 PM 38.0990 -103.0940 253° West 387 445 36,000  Level FlightAware ADS-B
Thu 08:35:03 PM 38.0830 -103.1630 254° West 387 445 36,000  Level FlightAware ADS-B
Thu 08:35:39 PM 38.0670 -103.2290 253° West 387 445 36,000  Level FlightAware ADS-B
Thu 08:36:15 PM 38.0510 -103.2960 253° West 387 445 36,000  Level FlightAware ADS-B
Thu 08:36:45 PM 38.0000 -103.4480 247° West 381 438 36,000  Level FlightAware ADS-B
Thu 08:37:23 PM 37.9820 -103.5170 252° West 381 438 36,000  Level FlightAware ADS-B
Thu 08:37:59 PM 37.9640 -103.5810 250° West 381 438 36,000  Level FlightAware ADS-B
Thu 08:38:35 PM 37.9470 -103.6460 252° West 381 438 36,000  Level FlightAware ADS-B
Thu 08:39:05 PM 37.9210 -103.7470 252° West 382 440 36,000  Level FlightAware ADS-B
Thu 08:39:43 PM 37.9030 -103.8150 251° West 382 440 36,000  Level FlightAware ADS-B
Thu 08:40:21 PM 37.8840 -103.8840 251° West 382 440 36,000  Level FlightAware ADS-B
Thu 08:40:57 PM 37.8660 -103.9480 250° West 382 440 36,000  Level FlightAware ADS-B
Thu 08:41:33 PM 37.8490 -104.0130 252° West 382 440 36,000  Level FlightAware ADS-B
Thu 08:42:09 PM 37.8310 -104.0780 251° West 382 440 36,000  Level FlightAware ADS-B
Thu 08:42:45 PM 37.8140 -104.1430 252° West 382 440 36,000  Level FlightAware ADS-B
Thu 08:43:19 PM 37.7970 -104.2040 251° West 382 440 36,000  Level FlightAware ADS-B
Thu 08:43:54 PM 37.7570 -104.3580 252° West 382 440 36,000  Level FlightAware ADS-B
Thu 08:44:44 PM 37.7290 -104.4610 251° West 381 438 36,000  Level FlightAware ADS-B
Thu 08:45:23 PM 37.7100 -104.5310 251° West 381 438 36,000  Level FlightAware ADS-B
Thu 08:45:59 PM 37.6920 -104.5960 251° West 381 438 36,000  Level FlightAware ADS-B
Thu 08:46:35 PM 37.6750 -104.6600 251° West 381 438 36,000  Level FlightAware ADS-B
Thu 08:47:09 PM 37.6460 -104.7640 251° West 378 435 36,000  Level FlightAware ADS-B
Thu 08:47:46 PM 37.6250 -104.8350 250° West 379 436 36,000  Level FlightAware ADS-B
Thu 08:48:27 PM 37.6040 -104.9120 251° West 382 440 36,000  Level FlightAware ADS-B
Thu 08:49:03 PM 37.5850 -104.9760 249° West 382 440 36,000  Level FlightAware ADS-B
Thu 08:49:39 PM 37.5670 -105.0400 250° West 382 440 36,000  Level FlightAware ADS-B
Thu 08:50:15 PM 37.5480 -105.1040 249° West 382 440 36,000  Level FlightAware ADS-B
Thu 08:51:04 PM 37.5090 -105.2510 252° West 386 444 36,000 76 Level FlightAware ADS-B
Thu 08:51:34 PM 37.4900 -105.3190 251° West 377 434 36,100  Climbing FlightAware ADS-B
Thu 08:52:09 PM 37.4720 -105.3830 251° West 377 434 36,000 -83 Descending FlightAware ADS-B
Thu 08:52:46 PM 37.4530 -105.4480 250° West 377 434 36,000  Level FlightAware ADS-B
Thu 08:53:23 PM 37.4350 -105.5130 251° West 377 434 36,000  Level FlightAware ADS-B
Thu 08:53:59 PM 37.4160 -105.5760 249° West 377 434 36,000  Level FlightAware ADS-B
Thu 08:54:35 PM 37.3980 -105.6390 250° West 377 434 36,000  Level FlightAware ADS-B
Thu 08:55:11 PM 37.3800 -105.7020 250° West 377 434 36,000  Level FlightAware ADS-B
Thu 08:55:47 PM 37.3620 -105.7650 250° West 377 434 36,000  Level FlightAware ADS-B
Thu 08:56:23 PM 37.3430 -105.8280 249° West 377 434 36,000  Level FlightAware ADS-B
Thu 08:56:59 PM 37.3250 -105.8910 250° West 377 434 36,000  Level FlightAware ADS-B
Thu 08:57:35 PM 37.3070 -105.9540 250° West 377 434 36,000  Level FlightAware ADS-B
Thu 08:58:11 PM 37.2890 -106.0170 250° West 377 434 36,000  Level FlightAware ADS-B
Thu 08:58:47 PM 37.2700 -106.0800 249° West 377 434 36,000  Level FlightAware ADS-B
Thu 08:59:25 PM 37.2510 -106.1470 250° West 377 434 36,000  Level FlightAware ADS-B
Thu 09:00:01 PM 37.2330 -106.2100 250° West 377 434 36,000  Level FlightAware ADS-B
Thu 09:00:37 PM 37.2150 -106.2730 250° West 377 434 36,000  Level FlightAware ADS-B
Thu 09:01:13 PM 37.1960 -106.3360 249° West 377 434 36,000  Level FlightAware ADS-B
Thu 09:02:09 PM 37.1430 -106.6210 257° West 362 417 36,000  Level FlightAware ADS-B
Thu 09:02:41 PM 37.1260 -106.6860 252° West 358 412 36,000  Level FlightAware ADS-B
Thu 09:03:15 PM 37.1090 -106.7520 252° West 354 407 36,000  Level FlightAware ADS-B
Thu 09:03:50 PM 37.0920 -106.8160 252° West 353 406 36,000  Level FlightAware ADS-B
Thu 09:04:25 PM 37.0730 -106.8900 252° West 354 407 36,000  Level FlightAware ADS-B
Thu 09:05:01 PM 37.0570 -106.9520 252° West 354 407 36,000  Level FlightAware ADS-B
Thu 09:05:39 PM 37.0350 -107.0340 251° West 356 410 36,000  Level FlightAware ADS-B
Thu 09:06:17 PM 37.0160 -107.1090 252° West 357 411 36,000  Level FlightAware ADS-B
Thu 09:06:50 PM 37.0010 -107.1650 251° West 356 410 36,000  Level FlightAware ADS-B
Thu 09:07:29 PM 36.9800 -107.2410 251° West 357 411 36,000  Level FlightAware ADS-B
Thu 09:08:06 PM 36.9610 -107.3140 252° West 359 413 36,000  Level FlightAware ADS-B
Thu 09:08:38 PM 36.9420 -107.3840 251° West 361 415 36,000  Level FlightAware ADS-B
Thu 09:09:09 PM 36.9280 -107.4380 252° West 362 417 36,000 88 Level FlightAware ADS-B
Thu 09:09:46 PM 36.9080 -107.5110 251° West 364 419 36,100 83 Climbing FlightAware ADS-B
Thu 09:10:21 PM 36.8880 -107.5850 251° West 364 419 36,100 -83 Level FlightAware ADS-B
Thu 09:10:58 PM 36.8670 -107.6620 251° West 363 418 36,000 -73 Descending FlightAware ADS-B
Thu 09:11:43 PM 36.8440 -107.7480 252° West 362 417 36,000  Level FlightAware ADS-B
Thu 09:12:16 PM 36.8270 -107.8110 251° West 362 417 36,000  Level FlightAware ADS-B
Thu 09:12:48 PM 36.8100 -107.8740 251° West 363 418 36,000  Level FlightAware ADS-B
Thu 09:13:29 PM 36.7880 -107.9530 251° West 362 417 36,000  Level FlightAware ADS-B
Thu 09:14:02 PM 36.7700 -108.0190 251° West 360 414 36,000  Level FlightAware ADS-B
Thu 09:14:44 PM 36.7470 -108.1080 252° West 361 415 36,000  Level FlightAware ADS-B
Thu 09:15:19 PM 36.7340 -108.1780 257° West 360 414 36,000  Level FlightAware ADS-B
Thu 09:16:02 PM 36.7190 -108.2570 257° West 362 417 36,000  Level FlightAware ADS-B
Thu 09:16:38 PM 36.7040 -108.3400 257° West 364 419 36,000  Level FlightAware ADS-B
Thu 09:17:15 PM 36.6900 -108.4130 257° West 364 419 36,000  Level FlightAware ADS-B
Thu 09:17:47 PM 36.6780 -108.4790 257° West 364 419 36,000  Level FlightAware ADS-B
Thu 09:18:18 PM 36.6660 -108.5420 257° West 361 415 36,000  Level FlightAware ADS-B
Thu 09:19:00 PM 36.6500 -108.6280 257° West 363 418 36,000  Level FlightAware ADS-B
Thu 09:19:31 PM 36.6390 -108.6890 257° West 361 415 36,000  Level FlightAware ADS-B
Thu 09:20:21 PM 36.6200 -108.7850 256° West 360 414 36,000  Level FlightAware ADS-B
Thu 09:20:54 PM 36.6110 -108.8330 257° West 362 417 36,000  Level FlightAware ADS-B
Thu 09:21:30 PM 36.5980 -108.8950 255° West 362 417 36,000  Level FlightAware ADS-B
Thu 09:22:06 PM 36.5860 -108.9570 256° West 362 417 36,000  Level FlightAware ADS-B
Thu 09:22:44 PM 36.5730 -109.0230 256° West 362 417 36,000  Level FlightAware ADS-B
Thu 09:23:20 PM 36.5610 -109.0850 256° West 362 417 36,000  Level FlightAware ADS-B
Thu 09:23:56 PM 36.5480 -109.1470 255° West 362 417 36,000  Level FlightAware ADS-B
Thu 09:24:32 PM 36.5360 -109.2080 256° West 362 417 36,000  Level FlightAware ADS-B
Thu 09:25:09 PM 36.5230 -109.2720 256° West 362 417 36,000  Level FlightAware ADS-B
Thu 09:25:45 PM 36.5110 -109.3340 256° West 362 417 36,000  Level FlightAware ADS-B
Thu 09:26:21 PM 36.4980 -109.3960 255° West 362 417 36,000  Level FlightAware ADS-B
Thu 09:26:57 PM 36.4860 -109.4580 256° West 362 417 36,000  Level FlightAware ADS-B
Thu 09:27:31 PM 36.4740 -109.5160 256° West 362 417 36,000  Level FlightAware ADS-B
Thu 09:28:07 PM 36.4620 -109.5780 256° West 362 417 36,000  Level FlightAware ADS-B
Thu 09:28:43 PM 36.4490 -109.6400 255° West 362 417 36,000  Level FlightAware ADS-B
Thu 09:29:19 PM 36.4370 -109.7010 256° West 362 417 36,000  Level FlightAware ADS-B
Thu 09:29:55 PM 36.4240 -109.7630 255° West 362 417 36,000  Level FlightAware ADS-B
Thu 09:32:22 PM 36.3300 -110.2650 257° West 360 414 36,000  Level FlightAware ADS-B
Thu 09:32:58 PM 36.3150 -110.3370 256° West 361 415 36,000  Level FlightAware ADS-B
Thu 09:33:34 PM 36.3010 -110.4100 257° West 361 415 36,000  Level FlightAware ADS-B
Thu 09:34:07 PM 36.2870 -110.4750 255° West 363 418 36,000  Level FlightAware ADS-B
Thu 09:34:43 PM 36.2730 -110.5460 256° West 363 418 36,000  Level FlightAware ADS-B
Thu 09:35:16 PM 36.2580 -110.6140 255° West 364 419 36,000  Level FlightAware ADS-B
Thu 09:35:58 PM 36.2410 -110.7000 256° West 363 418 36,000  Level FlightAware ADS-B
Thu 09:36:34 PM 36.2260 -110.7730 256° West 364 419 36,000 81 Level FlightAware ADS-B
Thu 09:37:12 PM 36.2100 -110.8480 255° West 363 418 36,100 86 Climbing FlightAware ADS-B
Thu 09:37:44 PM 36.1970 -110.9120 256° West 363 418 36,100 -94 Level FlightAware ADS-B
Thu 09:38:16 PM 36.1830 -110.9760 255° West 362 417 36,000 -86 Descending FlightAware ADS-B
Thu 09:38:54 PM 36.1670 -111.0520 255° West 360 414 36,000  Level FlightAware ADS-B
Thu 09:39:32 PM 36.1510 -111.1300 256° West 359 413 36,000  Level FlightAware ADS-B
Thu 09:40:04 PM 36.1380 -111.1910 255° West 358 412 36,000  Level FlightAware ADS-B
Thu 09:40:40 PM 36.1230 -111.2620 255° West 359 413 36,000  Level FlightAware ADS-B
Thu 09:41:14 PM 36.1090 -111.3280 255° West 363 418 36,000  Level FlightAware ADS-B
Thu 09:41:50 PM 36.0930 -111.4040 255° West 363 418 36,000  Level FlightAware ADS-B
Thu 09:42:26 PM 36.0780 -111.4760 256° West 363 418 36,000  Level FlightAware ADS-B
Thu 09:42:59 PM 36.0650 -111.5410 256° West 362 417 36,000  Level FlightAware ADS-B
Thu 09:43:36 PM 36.0490 -111.6150 255° West 361 415 36,000  Level FlightAware ADS-B
Thu 09:44:08 PM 36.0350 -111.6800 255° West 362 417 36,000  Level FlightAware ADS-B
Thu 09:44:44 PM 36.0200 -111.7520 256° West 365 420 36,000  Level FlightAware ADS-B
Thu 09:45:20 PM 36.0040 -111.8260 255° West 371 427 36,000 83 Level FlightAware ADS-B
Thu 09:45:56 PM 35.9890 -111.8980 256° West 373 429 36,100 88 Climbing FlightAware ADS-B
Thu 09:46:28 PM 35.9740 -111.9660 255° West 371 427 36,100  Level FlightAware ADS-B
Thu 09:47:05 PM 35.9590 -112.0380 256° West 365 420 36,100 -83 Level FlightAware ADS-B
Thu 09:47:40 PM 35.9440 -112.1090 255° West 362 417 36,000 -85 Descending FlightAware ADS-B
Thu 09:48:16 PM 35.9280 -112.1820 255° West 361 415 36,000  Level FlightAware ADS-B
Thu 09:48:48 PM 35.9150 -112.2430 255° West 359 413 36,000  Level FlightAware ADS-B
Thu 09:49:24 PM 35.8990 -112.3170 255° West 361 415 36,000  Level FlightAware ADS-B
Thu 09:50:00 PM 35.8830 -112.3880 254° West 363 418 36,000  Level FlightAware ADS-B
Thu 09:50:36 PM 35.8680 -112.4590 255° West 363 418 36,000  Level FlightAware ADS-B
Thu 09:51:08 PM 35.8540 -112.5230 255° West 366 421 36,000  Level FlightAware ADS-B
Thu 09:51:44 PM 35.8370 -112.5970 254° West 366 421 36,000  Level FlightAware ADS-B
Thu 09:52:20 PM 35.8220 -112.6680 255° West 367 422 36,000  Level FlightAware ADS-B
Thu 09:52:53 PM 35.8070 -112.7340 254° West 369 425 36,000  Level FlightAware ADS-B
Thu 09:53:30 PM 35.7910 -112.8090 255° West 369 425 36,000  Level FlightAware ADS-B
Thu 09:54:06 PM 35.7740 -112.8830 254° West 368 423 36,000  Level FlightAware ADS-B
Thu 09:54:42 PM 35.7580 -112.9560 255° West 370 426 36,000  Level FlightAware ADS-B
Thu 09:55:14 PM 35.7430 -113.0210 254° West 372 428 36,000  Level FlightAware ADS-B
Thu 09:55:50 PM 35.7270 -113.0930 255° West 371 427 36,000  Level FlightAware ADS-B
Thu 09:56:26 PM 35.7100 -113.1670 254° West 368 423 36,000  Level FlightAware ADS-B
Thu 09:56:59 PM 35.6950 -113.2330 254° West 368 423 36,000  Level FlightAware ADS-B
Thu 09:57:31 PM 35.6810 -113.2990 255° West 370 426 36,000  Level FlightAware ADS-B
Thu 09:58:05 PM 35.6660 -113.3660 255° West 369 425 36,000  Level FlightAware ADS-B
Thu 09:58:39 PM 35.6500 -113.4360 254° West 370 426 36,000  Level FlightAware ADS-B
Thu 09:59:15 PM 35.6340 -113.5060 254° West 370 426 36,000  Level FlightAware ADS-B
Thu 09:59:50 PM 35.6170 -113.5780 254° West 371 427 36,000  Level FlightAware ADS-B
Thu 10:00:24 PM 35.5980 -113.6460 251° West 371 427 36,000  Level FlightAware ADS-B
Thu 10:01:01 PM 35.5770 -113.7210 251° West 372 428 36,000  Level FlightAware ADS-B
Thu 10:01:33 PM 35.5600 -113.7850 252° West 370 426 36,000  Level FlightAware ADS-B
Thu 10:02:06 PM 35.5400 -113.8480 249° West 365 420 36,000  Level FlightAware ADS-B
Thu 10:02:43 PM 35.5110 -113.9160 242° Southwest 364 419 36,000  Level FlightAware ADS-B
Thu 10:03:20 PM 35.4840 -113.9820 243° Southwest 364 419 36,000  Level FlightAware ADS-B
Thu 10:03:56 PM 35.4570 -114.0460 243° Southwest 365 420 36,000  Level FlightAware ADS-B
Thu 10:04:27 PM 35.4310 -114.1060 242° Southwest 365 420 36,000  Level FlightAware ADS-B
Thu 10:05:03 PM 35.4050 -114.1690 243° Southwest 364 419 36,000  Level FlightAware ADS-B
Thu 10:05:37 PM 35.3770 -114.2350 243° Southwest 364 419 36,000  Level FlightAware ADS-B
Thu 10:06:15 PM 35.3470 -114.3040 242° Southwest 365 420 36,000  Level FlightAware ADS-B
Thu 10:06:43 PM 35.3270 -114.3530 243° Southwest 366 421 36,000  Level FlightAware ADS-B
Thu 10:07:19 PM 35.2980 -114.4210 242° Southwest 367 422 36,000  Level FlightAware ADS-B
Thu 10:07:52 PM 35.2730 -114.4790 242° Southwest 367 422 36,000  Level FlightAware ADS-B
Thu 10:08:29 PM 35.2430 -114.5500 243° Southwest 368 423 36,000  Level FlightAware ADS-B
Thu 10:09:04 PM 35.2140 -114.6170 242° Southwest 369 425 36,000  Level FlightAware ADS-B
Thu 10:09:36 PM 35.1890 -114.6760 243° Southwest 369 425 36,000  Level FlightAware ADS-B
Thu 10:10:14 PM 35.1590 -114.7460 242° Southwest 368 423 36,000  Level FlightAware ADS-B
Thu 10:10:49 PM 35.1320 -114.8100 243° Southwest 368 423 36,000  Level FlightAware ADS-B
Thu 10:11:25 PM 35.1090 -114.8620 242° Southwest 368 423 36,000  Level FlightAware ADS-B
Thu 10:11:56 PM 35.0790 -114.9330 243° Southwest 370 426 36,000  Level FlightAware ADS-B
Thu 10:12:33 PM 35.0480 -115.0020 241° Southwest 371 427 36,000  Level FlightAware ADS-B
Thu 10:13:09 PM 35.0210 -115.0650 242° Southwest 371 427 36,000  Level FlightAware ADS-B
Thu 10:13:44 PM 34.9920 -115.1340 243° Southwest 370 426 36,000  Level FlightAware ADS-B
Thu 10:14:16 PM 34.9660 -115.1930 242° Southwest 370 426 36,000  Level FlightAware ADS-B
Thu 10:14:52 PM 34.9380 -115.2570 242° Southwest 370 426 36,000  Level FlightAware ADS-B
Thu 10:15:37 PM 34.9020 -115.3390 242° Southwest 369 425 36,000  Level FlightAware ADS-B
Thu 10:16:09 PM 34.8780 -115.3940 242° Southwest 369 425 36,000 -277 Level FlightAware ADS-B
Thu 10:16:42 PM 34.8490 -115.4600 242° Southwest 365 420 35,700 -618 Descending FlightAware ADS-B
Thu 10:17:17 PM 34.8230 -115.5200 242° Southwest 371 427 35,300 -960 Descending FlightAware ADS-B
Thu 10:17:57 PM 34.7890 -115.5970 242° Southwest 370 426 34,500 -1,029 Descending FlightAware ADS-B
Thu 10:18:27 PM 34.7650 -115.6510 242° Southwest 364 419 34,100 -923 Descending FlightAware ADS-B
Thu 10:19:02 PM 34.7380 -115.7110 241° Southwest 370 426 33,500 -1,040 Descending FlightAware ADS-B
Thu 10:19:42 PM 34.7040 -115.7880 242° Southwest 370 426 32,800 -1,014 Descending FlightAware ADS-B
Thu 10:20:13 PM 34.6810 -115.8410 242° Southwest 358 412 32,300 -738 Descending FlightAware ADS-B
Thu 10:20:47 PM 34.6530 -115.9050 242° Southwest 356 410 32,000 -730 Descending FlightAware ADS-B
Thu 10:21:27 PM 34.6220 -115.9740 241° Southwest 351 404 31,400 -943 Descending FlightAware ADS-B
Thu 10:21:57 PM 34.5980 -116.0270 241° Southwest 350 403 30,900 -1,015 Descending FlightAware ADS-B
Thu 10:22:32 PM 34.5700 -116.0900 242° Southwest 349 402 30,300 -960 Descending FlightAware ADS-B
Thu 10:23:12 PM 34.5400 -116.1570 241° Southwest 345 397 29,700 -943 Descending FlightAware ADS-B
Thu 10:23:42 PM 34.5170 -116.2080 241° Southwest 343 395 29,200 -957 Descending FlightAware ADS-B
Thu 10:24:21 PM 34.4880 -116.2740 242° Southwest 336 387 28,600 -960 Descending FlightAware ADS-B
Thu 10:24:57 PM 34.4600 -116.3350 241° Southwest 333 383 28,000 -985 Descending FlightAware ADS-B
Thu 10:25:28 PM 34.4370 -116.3860 241° Southwest 331 381 27,500 -985 Descending FlightAware ADS-B
Thu 10:26:04 PM 34.4110 -116.4440 241° Southwest 328 377 26,900 -986 Descending FlightAware ADS-B
Thu 10:26:41 PM 34.3840 -116.5030 241° Southwest 327 376 26,300 -1,059 Descending FlightAware ADS-B
Thu 10:27:12 PM 34.3620 -116.5530 242° Southwest 328 377 25,700 -1,038 Descending FlightAware ADS-B
Thu 10:27:33 PM 34.3459 -116.5879 241° Southwest 324 373 25,400 -930 Descending FlightAware ADS-B
Thu 10:28:23 PM 34.3130 -116.6602 241° Southwest 318 366 24,600 -1,000 Descending FlightAware ADS-B
Thu 10:29:03 PM 34.2897 -116.7113 241° Southwest 318 366 23,900 -917 Descending FlightAware ADS-B
Thu 10:29:35 PM 34.2597 -116.7772 241° Southwest 325 374 23,500 -968 Descending FlightAware ADS-B
Thu 10:30:05 PM 34.2412 -116.8178 241° Southwest 332 382 22,900 -1,082 Descending FlightAware ADS-B
Thu 10:30:36 PM 34.2157 -116.8736 241° Southwest 329 379 22,400 -1,043 Descending FlightAware ADS-B
Thu 10:31:14 PM 34.1881 -116.9340 241° Southwest 325 374 21,700 -957 Descending FlightAware ADS-B
Thu 10:31:45 PM 34.1646 -116.9854 241° Southwest 325 374 21,300 -1,082 Descending FlightAware ADS-B
Thu 10:32:15 PM 34.1422 -117.0343 241° Southwest 322 371 20,600 -1,235 Descending FlightAware ADS-B
Thu 10:32:53 PM 34.1168 -117.0894 241° Southwest 319 367 19,900 -1,071 Descending FlightAware ADS-B
Thu 10:33:39 PM 34.0880 -117.1526 241° Southwest 314 361 19,100 -1,259 Descending FlightAware ADS-B
Thu 10:34:14 PM 34.0600 -117.2150 242° Southwest 309 356 18,200 -1,650 Descending FlightAware ADS-B
Thu 10:34:19 PM 34.0565 -117.2229 242° Southwest 307 353 18,000 -2,000 Descending FlightAware ADS-B
Thu 10:35:05 PM 34.0436 -117.2891 257° West 294 338 16,500 -1,705 Descending FlightAware ADS-B
Thu 10:35:47 PM 34.0370 -117.3640 264° West 272 313 15,500 -1,421 Descending FlightAware ADS-B
Thu 10:36:21 PM 34.0320 -117.4120 263° West 257 296 14,700 -1,412 Descending FlightAware ADS-B
Thu 10:36:55 PM 34.0280 -117.4580 264° West 246 283 13,900 -1,371 Descending FlightAware ADS-B
Thu 10:37:31 PM 34.0230 -117.5080 263° West 243 280 13,100 -1,479 Descending FlightAware ADS-B
Thu 10:38:08 PM 34.0190 -117.5590 265° West 250 288 12,100 -1,690 Descending FlightAware ADS-B
Thu 10:38:42 PM 34.0140 -117.6080 263° West 256 295 11,100 -1,522 Descending FlightAware ADS-B
Thu 10:39:15 PM 34.0090 -117.6560 263° West 255 293 10,400 -1,048 Descending FlightAware ADS-B
Thu 10:39:45 PM 34.0050 -117.6970 263° West 257 296 10,000 -808 Descending FlightAware ADS-B
Thu 10:40:07 PM 34.0030 -117.7270 265° West 256 295 9,700 -714 Descending FlightAware ADS-B
Thu 10:40:27 PM 34.0000 -117.7560 263° West 256 295 9,500 -615 Descending FlightAware ADS-B
Thu 10:40:46 PM 33.9970 -117.7860 263° West 256 295 9,300 -545 Descending FlightAware ADS-B
Thu 10:41:11 PM 33.9930 -117.8200 262° West 255 293 9,100 -533 Descending FlightAware ADS-B
Thu 10:41:31 PM 33.9910 -117.8470 265° West 253 291 8,900 -581 Descending FlightAware ADS-B
Thu 10:41:42 PM 33.9900 -117.8630 266° West 247 284 8,800 -625 Descending FlightAware ADS-B
Thu 10:42:19 PM 33.9900 -117.9120 270° West 236 272 8,400 -982 Descending FlightAware ADS-B
Thu 10:42:37 PM 33.9890 -117.9350 267° West 240 276 7,900 -1,636 Descending FlightAware ADS-B
Thu 10:43:03 PM 33.9890 -117.9730 270° West 241 277 7,200 -1,304 Descending FlightAware ADS-B
Thu 10:43:23 PM 33.9890 -117.9980 270° West 233 268 6,900 -769 Descending FlightAware ADS-B
Thu 10:43:42 PM 33.9900 -118.0220 273° West 225 259 6,700 -698 Descending FlightAware ADS-B
Thu 10:44:06 PM 33.9880 -118.0510 265° West 208 239 6,400 -878 Descending FlightAware ADS-B
Thu 10:44:23 PM 33.9850 -118.0700 259° West 204 235 6,100 -1,412 Descending FlightAware ADS-B
Thu 10:44:40 PM 33.9830 -118.0900 263° West 205 236 5,600 -1,459 Descending FlightAware ADS-B
Thu 10:45:00 PM 33.9810 -118.1120 264° West 202 232 5,200 -1,500 Descending FlightAware ADS-B
Thu 10:45:24 PM 33.9790 -118.1370 264° West 188 216 4,500 -1,535 Descending FlightAware ADS-B
Thu 10:45:43 PM 33.9770 -118.1560 263° West 163 188 4,100 -1,077 Descending FlightAware ADS-B
Thu 10:46:03 PM 33.9750 -118.1740 262° West 162 186 3,800 -750 Descending FlightAware ADS-B
Thu 10:46:23 PM 33.9730 -118.1920 262° West 162 186 3,600 -837 Descending FlightAware ADS-B
Thu 10:46:46 PM 33.9710 -118.2120 263° West 162 186 3,200 -857 Descending FlightAware ADS-B
Thu 10:47:05 PM 33.9700 -118.2270 265° West 162 186 3,000 -818 Descending FlightAware ADS-B
Thu 10:47:30 PM 33.9670 -118.2500 261° West 163 188 2,600 -955 Descending FlightAware ADS-B
Thu 10:47:49 PM 33.9660 -118.2680 266° West 161 185 2,300 -769 Descending FlightAware ADS-B
Thu 10:48:09 PM 33.9640 -118.2850 262° West 160 184 2,100 -686 Descending FlightAware ADS-B
Thu 10:48:24 PM 33.9620 -118.2990 260° West 153 176 1,900 -789 Descending FlightAware ADS-B
Thu 10:48:47 PM 33.9610 -118.3170 266° West 135 155 1,600 -789 Descending FlightAware ADS-B
Thu 10:49:02 PM 33.9600 -118.3260 262° West 132 152 1,400 -706 Descending FlightAware ADS-B
Thu 10:49:21 PM 33.9580 -118.3420 261° West 133 153 1,200 -615 Descending FlightAware ADS-B
Thu 10:49:41 PM 33.9570 -118.3550 265° West 129 148 1,000 -393 Descending FlightAware ADS-B
Thu 10:50:22 PM 33.9540 -118.3800 262° West 127 146 800 -293 Descending FlightAware ADS-B
Thu 10:58:00 PM 33.9333 -118.4000 259° West  Level FlightAware Approximate
Thu 10:59:00 PM 33.9425 -118.4081 259° West  Level Estimated

Login

Don't have an account? Register now (free) for customized features, flight alerts, and more!